sensor_id;sensor_type;location;lat;lon;timestamp;temperature;humidity
30459;DHT22;73251;50.912;6.918;2023-10-31T00:00:03;11.70;99.90
30459;DHT22;73251;50.912;6.918;2023-10-31T00:00:30;11.70;99.90
30459;DHT22;73251;50.912;6.918;2023-10-31T00:00:57;11.70;99.90
30459;DHT22;73251;50.912;6.918;2023-10-31T00:01:23;11.70;99.90
30459;DHT22;73251;50.912;6.918;2023-10-31T00:01:49;11.70;99.90
30459;DHT22;73251;50.912;6.918;2023-10-31T00:02:16;11.70;99.90
30459;DHT22;73251;50.912;6.918;2023-10-31T00:02:43;11.60;99.90
30459;DHT22;73251;50.912;6.918;2023-10-31T00:03:10;11.70;99.90
30459;DHT22;73251;50.912;6.918;2023-10-31T00:03:36;11.70;99.90
30459;DHT22;73251;50.912;6.918;2023-10-31T00:04:03;11.70;99.90
30459;DHT22;73251;50.912;6.918;2023-10-31T00:04:29;11.60;99.90
30459;DHT22;73251;50.912;6.918;2023-10-31T00:04:55;11.60;99.90
30459;DHT22;73251;50.912;6.918;2023-10-31T00:05:22;11.60;99.90
30459;DHT22;73251;50.912;6.918;2023-10-31T00:05:48;11.70;99.90
30459;DHT22;73251;50.912;6.918;2023-10-31T00:06:14;11.60;99.90
30459;DHT22;73251;50.912;6.918;2023-10-31T00:06:40;11.60;99.90
30459;DHT22;73251;50.912;6.918;2023-10-31T00:07:06;11.60;99.90
30459;DHT22;73251;50.912;6.918;2023-10-31T00:07:33;11.60;99.90
30459;DHT22;73251;50.912;6.918;2023-10-31T00:08:00;11.60;99.90
30459;DHT22;73251;50.912;6.918;2023-10-31T00:08:26;11.60;99.90
30459;DHT22;73251;50.912;6.918;2023-10-31T00:08:52;11.60;99.90
30459;DHT22;73251;50.912;6.918;2023-10-31T00:09:18;11.60;99.90
30459;DHT22;73251;50.912;6.918;2023-10-31T00:09:45;11.60;99.90
30459;DHT22;73251;50.912;6.918;2023-10-31T00:10:11;11.60;99.90
30459;DHT22;73251;50.912;6.918;2023-10-31T00:10:37;11.60;99.90
30459;DHT22;73251;50.912;6.918;2023-10-31T00:11:03;11.60;99.90
30459;DHT22;73251;50.912;6.918;2023-10-31T00:11:29;11.60;99.90
30459;DHT22;73251;50.912;6.918;2023-10-31T00:11:57;11.60;99.90
30459;DHT22;73251;50.912;6.918;2023-10-31T00:12:23;11.60;99.90
30459;DHT22;73251;50.912;6.918;2023-10-31T00:12:49;11.60;99.90
30459;DHT22;73251;50.912;6.918;2023-10-31T00:13:15;11.60;99.90
30459;DHT22;73251;50.912;6.918;2023-10-31T00:13:42;11.70;99.90
30459;DHT22;73251;50.912;6.918;2023-10-31T00:14:09;11.70;99.90
30459;DHT22;73251;50.912;6.918;2023-10-31T00:14:35;11.70;99.90
30459;DHT22;73251;50.912;6.918;2023-10-31T00:15:01;11.70;99.90
30459;DHT22;73251;50.912;6.918;2023-10-31T00:15:27;11.70;99.90
30459;DHT22;73251;50.912;6.918;2023-10-31T00:15:56;11.70;99.90
30459;DHT22;73251;50.912;6.918;2023-10-31T00:16:23;11.70;99.90
30459;DHT22;73251;50.912;6.918;2023-10-31T00:16:49;11.60;99.90
30459;DHT22;73251;50.912;6.918;2023-10-31T00:17:15;11.60;99.90
30459;DHT22;73251;50.912;6.918;2023-10-31T00:17:43;11.70;99.90
30459;DHT22;73251;50.912;6.918;2023-10-31T00:18:10;11.60;99.90
30459;DHT22;73251;50.912;6.918;2023-10-31T00:18:36;11.60;99.90
30459;DHT22;73251;50.912;6.918;2023-10-31T00:19:02;11.70;99.90
30459;DHT22;73251;50.912;6.918;2023-10-31T00:19:28;11.60;99.90
30459;DHT22;73251;50.912;6.918;2023-10-31T00:19:54;11.60;99.90
30459;DHT22;73251;50.912;6.918;2023-10-31T00:20:22;11.60;99.90
30459;DHT22;73251;50.912;6.918;2023-10-31T00:20:48;11.60;99.90
30459;DHT22;73251;50.912;6.918;2023-10-31T00:21:14;11.60;99.90
30459;DHT22;73251;50.912;6.918;2023-10-31T00:21:40;11.60;99.90
30459;DHT22;73251;50.912;6.918;2023-10-31T00:22:06;11.60;99.90
30459;DHT22;73251;50.912;6.918;2023-10-31T00:22:33;11.60;99.90
30459;DHT22;73251;50.912;6.918;2023-10-31T00:22:59;11.60;99.90
30459;DHT22;73251;50.912;6.918;2023-10-31T00:23:26;11.60;99.90
30459;DHT22;73251;50.912;6.918;2023-10-31T00:23:52;11.60;99.90
30459;DHT22;73251;50.912;6.918;2023-10-31T00:24:18;11.60;99.90
30459;DHT22;73251;50.912;6.918;2023-10-31T00:24:45;11.60;99.90
30459;DHT22;73251;50.912;6.918;2023-10-31T00:25:11;11.60;99.90
30459;DHT22;73251;50.912;6.918;2023-10-31T00:25:38;11.70;99.90
30459;DHT22;73251;50.912;6.918;2023-10-31T00:26:04;11.70;99.90
30459;DHT22;73251;50.912;6.918;2023-10-31T00:26:30;11.70;99.90
30459;DHT22;73251;50.912;6.918;2023-10-31T00:26:57;11.60;99.90
30459;DHT22;73251;50.912;6.918;2023-10-31T00:27:23;11.70;99.90
30459;DHT22;73251;50.912;6.918;2023-10-31T00:27:49;11.70;99.90
30459;DHT22;73251;50.912;6.918;2023-10-31T00:28:15;11.70;99.90
30459;DHT22;73251;50.912;6.918;2023-10-31T00:28:42;11.70;99.90
30459;DHT22;73251;50.912;6.918;2023-10-31T00:29:09;11.70;99.90
30459;DHT22;73251;50.912;6.918;2023-10-31T00:29:35;11.60;99.90
30459;DHT22;73251;50.912;6.918;2023-10-31T00:30:01;11.70;99.90
30459;DHT22;73251;50.912;6.918;2023-10-31T00:30:27;11.70;99.90
30459;DHT22;73251;50.912;6.918;2023-10-31T00:30:53;11.70;99.90
30459;DHT22;73251;50.912;6.918;2023-10-31T00:31:20;11.70;99.90
30459;DHT22;73251;50.912;6.918;2023-10-31T00:31:47;11.70;99.90
30459;DHT22;73251;50.912;6.918;2023-10-31T00:32:13;11.60;99.90
30459;DHT22;73251;50.912;6.918;2023-10-31T00:32:39;11.70;99.90
30459;DHT22;73251;50.912;6.918;2023-10-31T00:33:07;11.70;99.90
30459;DHT22;73251;50.912;6.918;2023-10-31T00:33:34;11.70;99.90
30459;DHT22;73251;50.912;6.918;2023-10-31T00:34:00;11.70;99.90
30459;DHT22;73251;50.912;6.918;2023-10-31T00:34:27;11.70;99.90
30459;DHT22;73251;50.912;6.918;2023-10-31T00:34:54;11.70;99.90
30459;DHT22;73251;50.912;6.918;2023-10-31T00:35:20;11.70;99.90
30459;DHT22;73251;50.912;6.918;2023-10-31T00:35:46;11.70;99.90
30459;DHT22;73251;50.912;6.918;2023-10-31T00:36:12;11.70;99.90
30459;DHT22;73251;50.912;6.918;2023-10-31T00:36:39;11.70;99.90
30459;DHT22;73251;50.912;6.918;2023-10-31T00:37:06;11.70;99.90
30459;DHT22;73251;50.912;6.918;2023-10-31T00:37:32;11.70;99.90
30459;DHT22;73251;50.912;6.918;2023-10-31T00:37:58;11.70;99.90
30459;DHT22;73251;50.912;6.918;2023-10-31T00:38:24;11.70;99.90
30459;DHT22;73251;50.912;6.918;2023-10-31T00:38:50;11.70;99.90
30459;DHT22;73251;50.912;6.918;2023-10-31T00:39:17;11.70;99.90
30459;DHT22;73251;50.912;6.918;2023-10-31T00:39:43;11.70;99.90
30459;DHT22;73251;50.912;6.918;2023-10-31T00:40:10;11.70;99.90
30459;DHT22;73251;50.912;6.918;2023-10-31T00:40:36;11.70;99.90
30459;DHT22;73251;50.912;6.918;2023-10-31T00:41:03;11.70;99.90
30459;DHT22;73251;50.912;6.918;2023-10-31T00:41:30;11.70;99.90
30459;DHT22;73251;50.912;6.918;2023-10-31T00:41:56;11.70;99.90
30459;DHT22;73251;50.912;6.918;2023-10-31T00:42:22;11.70;99.90
30459;DHT22;73251;50.912;6.918;2023-10-31T00:42:48;11.70;99.90
30459;DHT22;73251;50.912;6.918;2023-10-31T00:43:14;11.70;99.90
30459;DHT22;73251;50.912;6.918;2023-10-31T00:43:41;11.60;99.90
30459;DHT22;73251;50.912;6.918;2023-10-31T00:44:07;11.60;99.90
30459;DHT22;73251;50.912;6.918;2023-10-31T00:44:34;11.60;99.90
30459;DHT22;73251;50.912;6.918;2023-10-31T00:45:00;11.60;99.90
30459;DHT22;73251;50.912;6.918;2023-10-31T00:45:27;11.60;99.90
30459;DHT22;73251;50.912;6.918;2023-10-31T00:45:54;11.60;99.90
30459;DHT22;73251;50.912;6.918;2023-10-31T00:46:20;11.60;99.90
30459;DHT22;73251;50.912;6.918;2023-10-31T00:46:46;11.60;99.90
30459;DHT22;73251;50.912;6.918;2023-10-31T00:47:12;11.60;99.90
30459;DHT22;73251;50.912;6.918;2023-10-31T00:47:38;11.60;99.90
30459;DHT22;73251;50.912;6.918;2023-10-31T00:48:05;11.60;99.90
30459;DHT22;73251;50.912;6.918;2023-10-31T00:48:33;11.60;99.90
30459;DHT22;73251;50.912;6.918;2023-10-31T00:49:02;11.60;99.90
30459;DHT22;73251;50.912;6.918;2023-10-31T00:49:29;11.60;99.90
30459;DHT22;73251;50.912;6.918;2023-10-31T00:49:56;11.60;99.90
30459;DHT22;73251;50.912;6.918;2023-10-31T00:50:24;11.50;99.90
30459;DHT22;73251;50.912;6.918;2023-10-31T00:50:50;11.60;99.90
30459;DHT22;73251;50.912;6.918;2023-10-31T00:51:16;11.60;99.90
30459;DHT22;73251;50.912;6.918;2023-10-31T00:51:43;11.60;99.90
30459;DHT22;73251;50.912;6.918;2023-10-31T00:52:10;11.60;99.90
30459;DHT22;73251;50.912;6.918;2023-10-31T00:52:36;11.50;99.90
30459;DHT22;73251;50.912;6.918;2023-10-31T00:53:02;11.50;99.90
30459;DHT22;73251;50.912;6.918;2023-10-31T00:53:28;11.50;99.90
30459;DHT22;73251;50.912;6.918;2023-10-31T00:53:54;11.50;99.90
30459;DHT22;73251;50.912;6.918;2023-10-31T00:54:22;11.50;99.90
30459;DHT22;73251;50.912;6.918;2023-10-31T00:54:49;11.50;99.90
30459;DHT22;73251;50.912;6.918;2023-10-31T00:55:15;11.50;99.90
30459;DHT22;73251;50.912;6.918;2023-10-31T00:55:41;11.50;99.90
30459;DHT22;73251;50.912;6.918;2023-10-31T00:56:09;11.50;99.90
30459;DHT22;73251;50.912;6.918;2023-10-31T00:56:36;11.40;99.90
30459;DHT22;73251;50.912;6.918;2023-10-31T00:57:02;11.40;99.90
30459;DHT22;73251;50.912;6.918;2023-10-31T00:57:28;11.40;99.90
30459;DHT22;73251;50.912;6.918;2023-10-31T00:57:56;11.40;99.90
30459;DHT22;73251;50.912;6.918;2023-10-31T00:58:22;11.40;99.90
30459;DHT22;73251;50.912;6.918;2023-10-31T00:58:48;11.40;99.90
30459;DHT22;73251;50.912;6.918;2023-10-31T00:59:14;11.40;99.90
30459;DHT22;73251;50.912;6.918;2023-10-31T00:59:41;11.40;99.90
30459;DHT22;73251;50.912;6.918;2023-10-31T01:00:08;11.40;99.90
30459;DHT22;73251;50.912;6.918;2023-10-31T01:00:35;11.40;99.90
30459;DHT22;73251;50.912;6.918;2023-10-31T01:01:03;11.40;99.90
30459;DHT22;73251;50.912;6.918;2023-10-31T01:01:30;11.40;99.90
30459;DHT22;73251;50.912;6.918;2023-10-31T01:01:56;11.40;99.90
30459;DHT22;73251;50.912;6.918;2023-10-31T01:02:22;11.40;99.90
30459;DHT22;73251;50.912;6.918;2023-10-31T01:02:48;11.40;99.90
30459;DHT22;73251;50.912;6.918;2023-10-31T01:03:14;11.40;99.90
30459;DHT22;73251;50.912;6.918;2023-10-31T01:03:43;11.40;99.90
30459;DHT22;73251;50.912;6.918;2023-10-31T01:04:10;11.40;99.90
30459;DHT22;73251;50.912;6.918;2023-10-31T01:04:36;11.40;99.90
30459;DHT22;73251;50.912;6.918;2023-10-31T01:05:03;11.40;99.90
30459;DHT22;73251;50.912;6.918;2023-10-31T01:05:30;11.40;99.90
30459;DHT22;73251;50.912;6.918;2023-10-31T01:05:56;11.40;99.90
30459;DHT22;73251;50.912;6.918;2023-10-31T01:06:22;11.40;99.90
30459;DHT22;73251;50.912;6.918;2023-10-31T01:06:48;11.40;99.90
30459;DHT22;73251;50.912;6.918;2023-10-31T01:07:14;11.30;99.90
30459;DHT22;73251;50.912;6.918;2023-10-31T01:07:42;11.30;99.90
30459;DHT22;73251;50.912;6.918;2023-10-31T01:08:08;11.30;99.90
30459;DHT22;73251;50.912;6.918;2023-10-31T01:08:35;11.30;99.90
30459;DHT22;73251;50.912;6.918;2023-10-31T01:09:01;11.30;99.90
30459;DHT22;73251;50.912;6.918;2023-10-31T01:09:27;11.30;99.90
30459;DHT22;73251;50.912;6.918;2023-10-31T01:09:54;11.30;99.90
30459;DHT22;73251;50.912;6.918;2023-10-31T01:10:21;11.30;99.90
30459;DHT22;73251;50.912;6.918;2023-10-31T01:10:47;11.30;99.90
30459;DHT22;73251;50.912;6.918;2023-10-31T01:11:13;11.30;99.90
30459;DHT22;73251;50.912;6.918;2023-10-31T01:11:40;11.30;99.90
30459;DHT22;73251;50.912;6.918;2023-10-31T01:12:06;11.30;99.90
30459;DHT22;73251;50.912;6.918;2023-10-31T01:12:32;11.30;99.90
30459;DHT22;73251;50.912;6.918;2023-10-31T01:12:59;11.30;99.90
30459;DHT22;73251;50.912;6.918;2023-10-31T01:13:25;11.30;99.90
30459;DHT22;73251;50.912;6.918;2023-10-31T01:13:52;11.30;99.90
30459;DHT22;73251;50.912;6.918;2023-10-31T01:14:18;11.30;99.90
30459;DHT22;73251;50.912;6.918;2023-10-31T01:14:44;11.30;99.90
30459;DHT22;73251;50.912;6.918;2023-10-31T01:15:10;11.20;99.90
30459;DHT22;73251;50.912;6.918;2023-10-31T01:15:37;11.20;99.90
30459;DHT22;73251;50.912;6.918;2023-10-31T01:16:04;11.20;99.90
30459;DHT22;73251;50.912;6.918;2023-10-31T01:16:30;11.20;99.90
30459;DHT22;73251;50.912;6.918;2023-10-31T01:16:56;11.20;99.90
30459;DHT22;73251;50.912;6.918;2023-10-31T01:17:23;11.10;99.90
30459;DHT22;73251;50.912;6.918;2023-10-31T01:17:50;11.10;99.90
30459;DHT22;73251;50.912;6.918;2023-10-31T01:18:16;11.10;99.90
30459;DHT22;73251;50.912;6.918;2023-10-31T01:18:43;11.10;99.90
30459;DHT22;73251;50.912;6.918;2023-10-31T01:19:10;11.00;99.90
30459;DHT22;73251;50.912;6.918;2023-10-31T01:19:36;11.00;99.90
30459;DHT22;73251;50.912;6.918;2023-10-31T01:20:03;11.00;99.90
30459;DHT22;73251;50.912;6.918;2023-10-31T01:20:31;10.90;99.90
30459;DHT22;73251;50.912;6.918;2023-10-31T01:20:57;10.90;99.90
30459;DHT22;73251;50.912;6.918;2023-10-31T01:21:24;10.90;99.90
30459;DHT22;73251;50.912;6.918;2023-10-31T01:21:50;10.90;99.90
30459;DHT22;73251;50.912;6.918;2023-10-31T01:22:17;10.90;99.90
30459;DHT22;73251;50.912;6.918;2023-10-31T01:22:44;10.80;99.90
30459;DHT22;73251;50.912;6.918;2023-10-31T01:23:11;10.80;99.90
30459;DHT22;73251;50.912;6.918;2023-10-31T01:23:37;10.80;99.90
30459;DHT22;73251;50.912;6.918;2023-10-31T01:24:03;10.80;99.90
30459;DHT22;73251;50.912;6.918;2023-10-31T01:24:30;10.80;99.90
30459;DHT22;73251;50.912;6.918;2023-10-31T01:24:57;10.80;99.90
30459;DHT22;73251;50.912;6.918;2023-10-31T01:25:23;10.70;99.90
30459;DHT22;73251;50.912;6.918;2023-10-31T01:25:49;10.70;99.90
30459;DHT22;73251;50.912;6.918;2023-10-31T01:26:16;10.70;99.90
30459;DHT22;73251;50.912;6.918;2023-10-31T01:26:42;10.70;99.90
30459;DHT22;73251;50.912;6.918;2023-10-31T01:27:08;10.70;99.90
30459;DHT22;73251;50.912;6.918;2023-10-31T01:27:35;10.60;99.90
30459;DHT22;73251;50.912;6.918;2023-10-31T01:28:01;10.60;99.90
30459;DHT22;73251;50.912;6.918;2023-10-31T01:28:29;10.60;99.90
30459;DHT22;73251;50.912;6.918;2023-10-31T01:28:55;10.60;99.90
30459;DHT22;73251;50.912;6.918;2023-10-31T01:29:21;10.60;99.90
30459;DHT22;73251;50.912;6.918;2023-10-31T01:29:47;10.60;99.90
30459;DHT22;73251;50.912;6.918;2023-10-31T01:30:13;10.50;99.90
30459;DHT22;73251;50.912;6.918;2023-10-31T01:30:41;10.50;99.90
30459;DHT22;73251;50.912;6.918;2023-10-31T01:31:07;10.50;99.90
30459;DHT22;73251;50.912;6.918;2023-10-31T01:31:34;10.50;99.90
30459;DHT22;73251;50.912;6.918;2023-10-31T01:32:03;10.50;99.90
30459;DHT22;73251;50.912;6.918;2023-10-31T01:32:30;10.50;99.90
30459;DHT22;73251;50.912;6.918;2023-10-31T01:32:56;10.50;99.90
30459;DHT22;73251;50.912;6.918;2023-10-31T01:33:22;10.50;99.90
30459;DHT22;73251;50.912;6.918;2023-10-31T01:33:49;10.40;99.90
30459;DHT22;73251;50.912;6.918;2023-10-31T01:34:16;10.40;99.90
30459;DHT22;73251;50.912;6.918;2023-10-31T01:34:43;10.40;99.90
30459;DHT22;73251;50.912;6.918;2023-10-31T01:35:09;10.40;99.90
30459;DHT22;73251;50.912;6.918;2023-10-31T01:35:35;10.40;99.90
30459;DHT22;73251;50.912;6.918;2023-10-31T01:36:02;10.50;99.90
30459;DHT22;73251;50.912;6.918;2023-10-31T01:36:29;10.40;99.90
30459;DHT22;73251;50.912;6.918;2023-10-31T01:36:55;10.40;99.90
30459;DHT22;73251;50.912;6.918;2023-10-31T01:37:21;10.40;99.90
30459;DHT22;73251;50.912;6.918;2023-10-31T01:37:47;10.40;99.90
30459;DHT22;73251;50.912;6.918;2023-10-31T01:38:13;10.40;99.90
30459;DHT22;73251;50.912;6.918;2023-10-31T01:38:40;10.40;99.90
30459;DHT22;73251;50.912;6.918;2023-10-31T01:39:06;10.40;99.90
30459;DHT22;73251;50.912;6.918;2023-10-31T01:39:35;10.40;99.90
30459;DHT22;73251;50.912;6.918;2023-10-31T01:40:02;10.40;99.90
30459;DHT22;73251;50.912;6.918;2023-10-31T01:40:29;10.40;99.90
30459;DHT22;73251;50.912;6.918;2023-10-31T01:40:56;10.40;99.90
30459;DHT22;73251;50.912;6.918;2023-10-31T01:41:22;10.40;99.90
30459;DHT22;73251;50.912;6.918;2023-10-31T01:41:48;10.40;99.90
30459;DHT22;73251;50.912;6.918;2023-10-31T01:42:14;10.40;99.90
30459;DHT22;73251;50.912;6.918;2023-10-31T01:42:41;10.40;99.90
30459;DHT22;73251;50.912;6.918;2023-10-31T01:43:08;10.50;99.90
30459;DHT22;73251;50.912;6.918;2023-10-31T01:43:35;10.50;99.90
30459;DHT22;73251;50.912;6.918;2023-10-31T01:44:02;10.50;99.90
30459;DHT22;73251;50.912;6.918;2023-10-31T01:44:28;10.50;99.90
30459;DHT22;73251;50.912;6.918;2023-10-31T01:44:54;10.50;99.90
30459;DHT22;73251;50.912;6.918;2023-10-31T01:45:21;10.50;99.90
30459;DHT22;73251;50.912;6.918;2023-10-31T01:45:47;10.50;99.90
30459;DHT22;73251;50.912;6.918;2023-10-31T01:46:14;10.50;99.90
30459;DHT22;73251;50.912;6.918;2023-10-31T01:46:40;10.50;99.90
30459;DHT22;73251;50.912;6.918;2023-10-31T01:47:08;10.50;99.90
30459;DHT22;73251;50.912;6.918;2023-10-31T01:47:34;10.50;99.90
30459;DHT22;73251;50.912;6.918;2023-10-31T01:48:00;10.50;99.90
30459;DHT22;73251;50.912;6.918;2023-10-31T01:48:29;10.50;99.90
30459;DHT22;73251;50.912;6.918;2023-10-31T01:48:57;10.50;99.90
30459;DHT22;73251;50.912;6.918;2023-10-31T01:49:24;10.50;99.90
30459;DHT22;73251;50.912;6.918;2023-10-31T01:49:50;10.50;99.90
30459;DHT22;73251;50.912;6.918;2023-10-31T01:50:17;10.50;99.90
30459;DHT22;73251;50.912;6.918;2023-10-31T01:50:44;10.50;99.90
30459;DHT22;73251;50.912;6.918;2023-10-31T01:51:10;10.50;99.90
30459;DHT22;73251;50.912;6.918;2023-10-31T01:51:38;10.50;99.90
30459;DHT22;73251;50.912;6.918;2023-10-31T01:52:04;10.50;99.90
30459;DHT22;73251;50.912;6.918;2023-10-31T01:52:31;10.50;99.90
30459;DHT22;73251;50.912;6.918;2023-10-31T01:52:58;10.50;99.90
30459;DHT22;73251;50.912;6.918;2023-10-31T01:53:26;10.40;99.90
30459;DHT22;73251;50.912;6.918;2023-10-31T01:53:54;10.40;99.90
30459;DHT22;73251;50.912;6.918;2023-10-31T01:54:20;10.40;99.90
30459;DHT22;73251;50.912;6.918;2023-10-31T01:54:46;10.40;99.90
30459;DHT22;73251;50.912;6.918;2023-10-31T01:55:13;10.40;99.90
30459;DHT22;73251;50.912;6.918;2023-10-31T01:55:40;10.30;99.90
30459;DHT22;73251;50.912;6.918;2023-10-31T01:56:06;10.30;99.90
30459;DHT22;73251;50.912;6.918;2023-10-31T01:56:34;10.30;99.90
30459;DHT22;73251;50.912;6.918;2023-10-31T01:57:01;10.20;99.90
30459;DHT22;73251;50.912;6.918;2023-10-31T01:57:28;10.20;99.90
30459;DHT22;73251;50.912;6.918;2023-10-31T01:57:54;10.20;99.90
30459;DHT22;73251;50.912;6.918;2023-10-31T01:58:23;10.20;99.90
30459;DHT22;73251;50.912;6.918;2023-10-31T01:58:52;10.20;99.90
30459;DHT22;73251;50.912;6.918;2023-10-31T01:59:19;10.10;99.90
30459;DHT22;73251;50.912;6.918;2023-10-31T01:59:45;10.10;99.90
30459;DHT22;73251;50.912;6.918;2023-10-31T02:00:13;10.10;99.90
30459;DHT22;73251;50.912;6.918;2023-10-31T02:00:40;10.10;99.90
30459;DHT22;73251;50.912;6.918;2023-10-31T02:01:08;10.10;99.90
30459;DHT22;73251;50.912;6.918;2023-10-31T02:01:37;10.10;99.90
30459;DHT22;73251;50.912;6.918;2023-10-31T02:02:04;10.10;99.90
30459;DHT22;73251;50.912;6.918;2023-10-31T02:02:32;10.10;99.90
30459;DHT22;73251;50.912;6.918;2023-10-31T02:03:00;10.10;99.90
30459;DHT22;73251;50.912;6.918;2023-10-31T02:03:28;10.10;99.90
30459;DHT22;73251;50.912;6.918;2023-10-31T02:03:54;10.00;99.90
30459;DHT22;73251;50.912;6.918;2023-10-31T02:04:22;10.00;99.90
30459;DHT22;73251;50.912;6.918;2023-10-31T02:04:48;10.00;99.90
30459;DHT22;73251;50.912;6.918;2023-10-31T02:05:16;10.00;99.90
30459;DHT22;73251;50.912;6.918;2023-10-31T02:05:42;10.00;99.90
30459;DHT22;73251;50.912;6.918;2023-10-31T02:06:10;10.00;99.90
30459;DHT22;73251;50.912;6.918;2023-10-31T02:06:36;10.00;99.90
30459;DHT22;73251;50.912;6.918;2023-10-31T02:07:03;10.00;99.90
30459;DHT22;73251;50.912;6.918;2023-10-31T02:07:29;10.00;99.90
30459;DHT22;73251;50.912;6.918;2023-10-31T02:07:55;10.00;99.90
30459;DHT22;73251;50.912;6.918;2023-10-31T02:08:21;9.90;99.90
30459;DHT22;73251;50.912;6.918;2023-10-31T02:08:50;9.90;99.90
30459;DHT22;73251;50.912;6.918;2023-10-31T02:09:17;9.90;99.90
30459;DHT22;73251;50.912;6.918;2023-10-31T02:09:43;9.90;99.90
30459;DHT22;73251;50.912;6.918;2023-10-31T02:10:09;9.90;99.90
30459;DHT22;73251;50.912;6.918;2023-10-31T02:10:36;9.90;99.90
30459;DHT22;73251;50.912;6.918;2023-10-31T02:11:02;9.90;99.90
30459;DHT22;73251;50.912;6.918;2023-10-31T02:11:29;9.80;99.90
30459;DHT22;73251;50.912;6.918;2023-10-31T02:11:55;9.90;99.90
30459;DHT22;73251;50.912;6.918;2023-10-31T02:12:32;9.80;99.90
30459;DHT22;73251;50.912;6.918;2023-10-31T02:13:10;9.90;99.90
30459;DHT22;73251;50.912;6.918;2023-10-31T02:13:36;9.90;99.90
30459;DHT22;73251;50.912;6.918;2023-10-31T02:14:03;9.80;99.90
30459;DHT22;73251;50.912;6.918;2023-10-31T02:14:29;9.80;99.90
30459;DHT22;73251;50.912;6.918;2023-10-31T02:14:55;9.80;99.90
30459;DHT22;73251;50.912;6.918;2023-10-31T02:15:21;9.80;99.90
30459;DHT22;73251;50.912;6.918;2023-10-31T02:15:49;9.80;99.90
30459;DHT22;73251;50.912;6.918;2023-10-31T02:16:16;9.80;99.90
30459;DHT22;73251;50.912;6.918;2023-10-31T02:16:42;9.80;99.90
30459;DHT22;73251;50.912;6.918;2023-10-31T02:17:09;9.70;99.90
30459;DHT22;73251;50.912;6.918;2023-10-31T02:17:35;9.70;99.90
30459;DHT22;73251;50.912;6.918;2023-10-31T02:18:01;9.70;99.90
30459;DHT22;73251;50.912;6.918;2023-10-31T02:18:28;9.70;99.90
30459;DHT22;73251;50.912;6.918;2023-10-31T02:18:54;9.70;99.90
30459;DHT22;73251;50.912;6.918;2023-10-31T02:19:21;9.70;99.90
30459;DHT22;73251;50.912;6.918;2023-10-31T02:19:48;9.70;99.90
30459;DHT22;73251;50.912;6.918;2023-10-31T02:20:14;9.60;99.90
30459;DHT22;73251;50.912;6.918;2023-10-31T02:20:41;9.60;99.90
30459;DHT22;73251;50.912;6.918;2023-10-31T02:21:07;9.70;99.90
30459;DHT22;73251;50.912;6.918;2023-10-31T02:21:33;9.60;99.90
30459;DHT22;73251;50.912;6.918;2023-10-31T02:22:01;9.60;99.90
30459;DHT22;73251;50.912;6.918;2023-10-31T02:22:27;9.60;99.90
30459;DHT22;73251;50.912;6.918;2023-10-31T02:22:54;9.60;99.90
30459;DHT22;73251;50.912;6.918;2023-10-31T02:23:20;9.60;99.90
30459;DHT22;73251;50.912;6.918;2023-10-31T02:23:56;9.60;99.90
30459;DHT22;73251;50.912;6.918;2023-10-31T02:24:22;9.60;99.90
30459;DHT22;73251;50.912;6.918;2023-10-31T02:24:49;9.60;99.90
30459;DHT22;73251;50.912;6.918;2023-10-31T02:25:16;9.60;99.90
30459;DHT22;73251;50.912;6.918;2023-10-31T02:25:43;9.60;99.90
30459;DHT22;73251;50.912;6.918;2023-10-31T02:26:09;9.60;99.90
30459;DHT22;73251;50.912;6.918;2023-10-31T02:26:36;9.60;99.90
30459;DHT22;73251;50.912;6.918;2023-10-31T02:27:03;9.60;99.90
30459;DHT22;73251;50.912;6.918;2023-10-31T02:27:29;9.60;99.90
30459;DHT22;73251;50.912;6.918;2023-10-31T02:27:55;9.60;99.90
30459;DHT22;73251;50.912;6.918;2023-10-31T02:28:21;9.60;99.90
30459;DHT22;73251;50.912;6.918;2023-10-31T02:28:48;9.60;99.90
30459;DHT22;73251;50.912;6.918;2023-10-31T02:29:14;9.50;99.90
30459;DHT22;73251;50.912;6.918;2023-10-31T02:29:40;9.60;99.90
30459;DHT22;73251;50.912;6.918;2023-10-31T02:30:07;9.60;99.90
30459;DHT22;73251;50.912;6.918;2023-10-31T02:30:34;9.50;99.90
30459;DHT22;73251;50.912;6.918;2023-10-31T02:31:02;9.50;99.90
30459;DHT22;73251;50.912;6.918;2023-10-31T02:31:28;9.50;99.90
30459;DHT22;73251;50.912;6.918;2023-10-31T02:31:55;9.50;99.90
30459;DHT22;73251;50.912;6.918;2023-10-31T02:32:21;9.60;99.90
30459;DHT22;73251;50.912;6.918;2023-10-31T02:32:47;9.50;99.90
30459;DHT22;73251;50.912;6.918;2023-10-31T02:33:14;9.50;99.90
30459;DHT22;73251;50.912;6.918;2023-10-31T02:33:40;9.50;99.90
30459;DHT22;73251;50.912;6.918;2023-10-31T02:34:06;9.50;99.90
30459;DHT22;73251;50.912;6.918;2023-10-31T02:34:32;9.50;99.90
30459;DHT22;73251;50.912;6.918;2023-10-31T02:35:00;9.50;99.90
30459;DHT22;73251;50.912;6.918;2023-10-31T02:35:27;9.50;99.90
30459;DHT22;73251;50.912;6.918;2023-10-31T02:35:53;9.50;99.90
30459;DHT22;73251;50.912;6.918;2023-10-31T02:36:19;9.50;99.90
30459;DHT22;73251;50.912;6.918;2023-10-31T02:36:45;9.50;99.90
30459;DHT22;73251;50.912;6.918;2023-10-31T02:37:14;9.50;99.90
30459;DHT22;73251;50.912;6.918;2023-10-31T02:37:40;9.50;99.90
30459;DHT22;73251;50.912;6.918;2023-10-31T02:38:06;9.50;99.90
30459;DHT22;73251;50.912;6.918;2023-10-31T02:38:33;9.50;99.90
30459;DHT22;73251;50.912;6.918;2023-10-31T02:39:01;9.50;99.90
30459;DHT22;73251;50.912;6.918;2023-10-31T02:39:28;9.50;99.90
30459;DHT22;73251;50.912;6.918;2023-10-31T02:39:54;9.50;99.90
30459;DHT22;73251;50.912;6.918;2023-10-31T02:40:20;9.50;99.90
30459;DHT22;73251;50.912;6.918;2023-10-31T02:40:46;9.50;99.90
30459;DHT22;73251;50.912;6.918;2023-10-31T02:41:14;9.50;99.90
30459;DHT22;73251;50.912;6.918;2023-10-31T02:41:40;9.50;99.90
30459;DHT22;73251;50.912;6.918;2023-10-31T02:42:07;9.50;99.90
30459;DHT22;73251;50.912;6.918;2023-10-31T02:42:33;9.50;99.90
30459;DHT22;73251;50.912;6.918;2023-10-31T02:42:59;9.40;99.90
30459;DHT22;73251;50.912;6.918;2023-10-31T02:43:27;9.40;99.90
30459;DHT22;73251;50.912;6.918;2023-10-31T02:43:53;9.40;99.90
30459;DHT22;73251;50.912;6.918;2023-10-31T02:44:21;9.40;99.90
30459;DHT22;73251;50.912;6.918;2023-10-31T02:44:47;9.40;99.90
30459;DHT22;73251;50.912;6.918;2023-10-31T02:45:15;9.40;99.90
30459;DHT22;73251;50.912;6.918;2023-10-31T02:45:42;9.40;99.90
30459;DHT22;73251;50.912;6.918;2023-10-31T02:46:08;9.40;99.90
30459;DHT22;73251;50.912;6.918;2023-10-31T02:46:38;9.40;99.90
30459;DHT22;73251;50.912;6.918;2023-10-31T02:47:04;9.40;99.90
30459;DHT22;73251;50.912;6.918;2023-10-31T02:47:31;9.40;99.90
30459;DHT22;73251;50.912;6.918;2023-10-31T02:47:57;9.40;99.90
30459;DHT22;73251;50.912;6.918;2023-10-31T02:48:24;9.40;99.90
30459;DHT22;73251;50.912;6.918;2023-10-31T02:48:50;9.40;99.90
30459;DHT22;73251;50.912;6.918;2023-10-31T02:49:16;9.40;99.90